Time;durP1;ratioP1;P1;durP2;ratioP2;P2;SDS_P1;SDS_P2;PMS_P1;PMS_P2;Temp;Humidity;BMP_temperature;BMP_pressure;BME280_temperature;BME280_humidity;BME280_pressure;Samples;Min_cycle;Max_cycle;Signal;HPM_P1;HPM_P2
2022/04/07 00:01:34;;;;;;;4.68;2.00;;;10.00;93.90;;;;;;5037266;28;20041;-82
2022/04/07 00:04:02;;;;;;;3.20;1.65;;;10.00;93.90;;;;;;5037765;28;20049;-82
2022/04/07 00:06:29;;;;;;;4.10;2.13;;;9.90;93.90;;;;;;5053886;28;20461;-82
2022/04/07 00:08:57;;;;;;;4.18;2.30;;;9.90;94.00;;;;;;5053868;28;20453;-82
2022/04/07 00:11:24;;;;;;;4.45;2.17;;;9.80;94.10;;;;;;5037032;28;20057;-82
2022/04/07 00:13:51;;;;;;;3.38;2.28;;;9.80;94.40;;;;;;5037119;28;20514;-82
2022/04/07 00:16:21;;;;;;;5.40;2.63;;;9.70;94.20;;;;;;5037069;28;20068;-82
2022/04/07 00:18:49;;;;;;;3.65;2.45;;;9.70;94.20;;;;;;5053625;28;20045;-82
2022/04/07 00:21:24;;;;;;;2.92;2.40;;;9.70;94.30;;;;;;5036706;28;20493;-83
2022/04/07 00:23:52;;;;;;;3.60;2.45;;;9.70;94.30;;;;;;5037300;28;20060;-82
2022/04/07 00:26:20;;;;;;;3.80;2.60;;;9.70;94.30;;;;;;5054296;28;20061;-88
2022/04/07 00:28:47;;;;;;;4.82;2.45;;;9.70;94.60;;;;;;5054123;28;20059;-89
2022/04/07 00:31:17;;;;;;;3.88;2.28;;;9.70;94.40;;;;;;5038140;28;20053;-89
2022/04/07 00:33:45;;;;;;;3.55;2.08;;;9.70;94.40;;;;;;5021664;28;20037;-89
2022/04/07 00:36:12;;;;;;;4.70;2.53;;;9.70;94.40;;;;;;5037817;28;20076;-88
2022/04/07 00:38:39;;;;;;;5.03;2.30;;;9.70;94.50;;;;;;5037904;28;20049;-87
2022/04/07 00:41:06;;;;;;;6.72;2.92;;;9.60;94.50;;;;;;5037161;28;20052;-88
2022/04/07 00:43:34;;;;;;;4.15;2.50;;;9.60;94.60;;;;;;5020327;28;20053;-88
2022/04/07 00:46:02;;;;;;;3.10;1.75;;;9.60;94.60;;;;;;5037553;28;20075;-88
2022/04/07 00:48:30;;;;;;;2.90;1.55;;;9.60;94.60;;;;;;5037418;28;20102;-88
2022/04/07 00:50:57;;;;;;;3.45;2.75;;;9.60;94.60;;;;;;5037740;28;20048;-88
2022/04/07 00:53:26;;;;;;;2.85;2.00;;;9.60;94.60;;;;;;5037691;28;20369;-88
2022/04/07 00:55:53;;;;;;;3.10;1.95;;;9.60;94.70;;;;;;5037638;28;20037;-87
2022/04/07 00:58:22;;;;;;;4.03;1.92;;;9.60;94.70;;;;;;5022064;28;20045;-88
2022/04/07 01:00:49;;;;;;;4.45;1.90;;;9.60;94.70;;;;;;5053948;28;20037;-87
2022/04/07 01:03:16;;;;;;;4.80;1.75;;;9.60;94.60;;;;;;5054406;28;20041;-88
2022/04/07 01:05:46;;;;;;;3.08;1.73;;;9.60;94.60;;;;;;5062495;28;20060;-88
2022/04/07 01:08:13;;;;;;;3.63;1.77;;;9.60;94.60;;;;;;5044743;28;20045;-88
2022/04/07 01:10:42;;;;;;;2.75;1.27;;;9.60;94.60;;;;;;5052210;28;20496;-88
2022/04/07 01:13:11;;;;;;;3.20;1.40;;;9.60;94.60;;;;;;5040795;28;20044;-88
2022/04/07 01:15:38;;;;;;;4.93;1.38;;;9.60;94.60;;;;;;5041456;28;20048;-89
2022/04/07 01:18:07;;;;;;;3.95;1.15;;;9.70;94.80;;;;;;5041111;28;20045;-88
2022/04/07 01:20:34;;;;;;;4.85;1.23;;;9.60;94.50;;;;;;5039050;28;20061;-88
2022/04/07 01:23:03;;;;;;;2.35;1.17;;;9.70;94.50;;;;;;5039876;28;20053;-87
2022/04/07 01:25:31;;;;;;;4.13;0.88;;;9.70;94.40;;;;;;5037798;28;20052;-87
2022/04/07 01:27:58;;;;;;;2.47;0.95;;;9.70;94.40;;;;;;5053387;28;20048;-87
2022/04/07 01:30:25;;;;;;;2.67;0.90;;;9.60;94.40;;;;;;5036636;28;20052;-88
2022/04/07 01:32:57;;;;;;;3.50;1.05;;;9.60;94.40;;;;;;5036952;28;20044;-88
2022/04/07 01:35:25;;;;;;;3.35;0.90;;;9.60;94.40;;;;;;5036992;28;20132;-88
2022/04/07 01:37:53;;;;;;;5.32;1.13;;;9.50;94.50;;;;;;5036655;28;20139;-89
2022/04/07 01:40:24;;;;;;;5.20;1.00;;;9.50;94.60;;;;;;5036707;28;20056;-89
2022/04/07 01:42:55;;;;;;;4.85;0.90;;;9.40;94.60;;;;;;5052788;28;20045;-89
2022/04/07 01:45:23;;;;;;;2.10;0.80;;;9.40;94.70;;;;;;5053023;28;20068;-89
2022/04/07 01:47:52;;;;;;;1.42;0.63;;;9.40;94.80;;;;;;5053226;28;20049;-89
2022/04/07 01:50:20;;;;;;;4.78;0.90;;;9.40;94.80;;;;;;5036610;28;20152;-89
2022/04/07 01:52:48;;;;;;;2.17;0.60;;;9.30;94.80;;;;;;5053038;28;20037;-89
2022/04/07 01:55:16;;;;;;;2.85;0.73;;;9.30;94.90;;;;;;5036615;28;20136;-89
2022/04/07 01:57:44;;;;;;;2.53;1.10;;;9.30;94.90;;;;;;5036822;28;20056;-90
2022/04/07 02:00:12;;;;;;;2.22;0.88;;;9.20;94.90;;;;;;5036258;28;20052;-89
2022/04/07 02:02:40;;;;;;;2.33;0.85;;;9.20;94.90;;;;;;5036510;28;20412;-89
2022/04/07 02:05:10;;;;;;;3.80;1.00;;;9.20;94.90;;;;;;5036233;28;20037;-89
2022/04/07 02:07:40;;;;;;;6.18;1.10;;;9.20;95.00;;;;;;5036106;28;20041;-89
2022/04/07 02:10:10;;;;;;;2.30;1.02;;;9.20;95.00;;;;;;5053012;28;20090;-88
2022/04/07 02:12:41;;;;;;;4.18;1.30;;;9.20;95.00;;;;;;5052836;28;20139;-89
2022/04/07 02:15:10;;;;;;;4.20;1.70;;;9.20;95.30;;;;;;5036190;28;20144;-88
2022/04/07 02:17:38;;;;;;;5.07;1.52;;;9.20;95.00;;;;;;5036511;28;20041;-88
2022/04/07 02:20:07;;;;;;;4.03;1.33;;;9.20;95.10;;;;;;5035988;28;20516;-87
2022/04/07 02:22:36;;;;;;;3.13;1.42;;;9.20;95.10;;;;;;5052421;28;20519;-88
2022/04/07 02:25:11;;;;;;;2.05;0.90;;;9.20;95.20;;;;;;5034921;28;20049;-87
2022/04/07 02:27:44;;;;;;;4.60;1.38;;;9.20;95.20;;;;;;5036340;28;20037;-87
2022/04/07 02:30:14;;;;;;;6.20;1.60;;;9.20;95.20;;;;;;5035694;28;20041;-87
2022/04/07 02:32:44;;;;;;;4.78;1.25;;;9.10;95.30;;;;;;5035616;28;20049;-87
2022/04/07 02:35:13;;;;;;;5.18;1.40;;;9.10;95.30;;;;;;5052305;28;20041;-87
2022/04/07 02:37:40;;;;;;;4.80;1.50;;;9.10;95.30;;;;;;5035822;28;20049;-87
2022/04/07 02:40:08;;;;;;;3.10;1.27;;;9.10;95.40;;;;;;5035859;28;20049;-88
2022/04/07 02:42:35;;;;;;;3.45;1.08;;;9.10;95.40;;;;;;5036734;28;20198;-87
2022/04/07 02:45:04;;;;;;;2.90;1.23;;;9.10;95.40;;;;;;5036086;28;20037;-87
2022/04/07 02:47:40;;;;;;;5.18;1.80;;;9.10;95.40;;;;;;5035114;28;20140;-88
2022/04/07 02:50:08;;;;;;;4.30;1.20;;;9.10;95.40;;;;;;5052354;28;20119;-88
2022/04/07 02:52:35;;;;;;;5.65;1.50;;;9.10;95.50;;;;;;5052000;28;20052;-88
2022/04/07 02:55:03;;;;;;;5.40;2.10;;;9.10;95.50;;;;;;5052504;28;20053;-87
2022/04/07 02:57:32;;;;;;;5.20;1.88;;;9.10;95.60;;;;;;5052158;28;20045;-88
2022/04/07 03:00:00;;;;;;;9.05;2.10;;;9.10;95.60;;;;;;5052060;28;20161;-87
2022/04/07 03:02:27;;;;;;;3.13;1.30;;;9.10;95.60;;;;;;5035158;28;20559;-87
2022/04/07 03:04:57;;;;;;;4.72;1.75;;;9.10;95.60;;;;;;5019426;28;20037;-87
2022/04/07 03:07:25;;;;;;;5.25;2.10;;;9.00;95.60;;;;;;5035915;28;20045;-87
2022/04/07 03:09:52;;;;;;;6.63;2.63;;;9.00;95.60;;;;;;5019431;28;20068;-88
2022/04/07 03:12:19;;;;;;;4.50;1.95;;;9.00;95.70;;;;;;5036034;28;20049;-88
2022/04/07 03:14:46;;;;;;;3.53;1.52;;;9.00;95.70;;;;;;5052125;28;20132;-87
2022/04/07 03:17:13;;;;;;;7.75;1.92;;;9.00;95.70;;;;;;5051826;28;20041;-88
2022/04/07 03:19:40;;;;;;;7.30;2.30;;;9.00;95.70;;;;;;5051990;28;20051;-87
2022/04/07 03:22:08;;;;;;;7.28;2.15;;;9.10;95.70;;;;;;5035605;28;20080;-87
2022/04/07 03:24:35;;;;;;;5.00;2.17;;;9.10;95.60;;;;;;5035441;28;20045;-87
2022/04/07 03:27:08;;;;;;;4.60;1.70;;;9.10;95.60;;;;;;5035969;28;20072;-88
2022/04/07 03:29:35;;;;;;;2.42;1.30;;;9.10;95.60;;;;;;5039024;28;20056;-87
2022/04/07 03:32:04;;;;;;;6.07;1.40;;;9.10;95.60;;;;;;5022232;28;20060;-88
2022/04/07 03:34:33;;;;;;;4.38;1.58;;;9.20;95.60;;;;;;5038894;28;20048;-87
2022/04/07 03:37:01;;;;;;;3.83;1.63;;;9.20;95.60;;;;;;5022363;28;20045;-88
2022/04/07 03:39:29;;;;;;;4.43;1.10;;;9.20;95.50;;;;;;5055132;28;20041;-87
2022/04/07 03:41:56;;;;;;;6.53;1.60;;;9.20;95.50;;;;;;5038500;28;20488;-86
2022/04/07 03:44:23;;;;;;;6.90;1.20;;;9.30;95.50;;;;;;5038805;28;20102;-87
2022/04/07 03:46:50;;;;;;;3.70;0.93;;;9.30;95.40;;;;;;5038758;28;20041;-87
2022/04/07 03:49:20;;;;;;;7.60;1.67;;;9.30;95.40;;;;;;5054618;28;20135;-87
2022/04/07 03:51:47;;;;;;;4.70;1.52;;;9.30;95.30;;;;;;5038677;28;20049;-87
2022/04/07 03:54:17;;;;;;;5.32;1.10;;;9.30;95.30;;;;;;5038574;28;20056;-87
2022/04/07 03:56:55;;;;;;;3.92;1.20;;;9.20;95.30;;;;;;5038842;28;20041;-88
2022/04/07 03:59:52;;;;;;;3.58;1.15;;;9.20;95.30;;;;;;5026382;28;20072;-88
2022/04/07 04:02:19;;;;;;;4.25;1.38;;;9.20;95.30;;;;;;5038678;28;20045;-88
2022/04/07 04:04:57;;;;;;;4.53;1.40;;;9.10;95.30;;;;;;5039291;28;20044;-89
2022/04/07 04:07:24;;;;;;;4.75;1.63;;;9.10;95.40;;;;;;5022734;28;20049;-89
2022/04/07 04:09:51;;;;;;;5.50;1.52;;;9.10;95.40;;;;;;5055047;28;20053;-88
2022/04/07 04:12:18;;;;;;;4.32;1.27;;;9.10;95.50;;;;;;5054853;28;20098;-89
2022/04/07 04:14:50;;;;;;;3.58;1.05;;;9.10;95.50;;;;;;5037740;28;20041;-89
2022/04/07 04:17:33;;;;;;;4.47;1.15;;;9.10;95.50;;;;;;5039608;28;20041;-89
2022/04/07 04:20:01;;;;;;;5.50;1.15;;;9.10;95.50;;;;;;5037552;28;20469;-88
2022/04/07 04:22:29;;;;;;;3.10;1.02;;;9.10;95.50;;;;;;5046123;28;20123;-89
2022/04/07 04:24:59;;;;;;;6.97;1.40;;;9.10;95.50;;;;;;5050786;28;20069;-88
2022/04/07 04:27:29;;;;;;;;;;;9.10;95.50;;;;;;5020232;28;20041;-88
2022/04/07 04:29:57;;;;;;;4.13;1.25;;;9.10;95.50;;;;;;5034255;28;19921;-87
2022/04/07 04:32:29;;;;;;;6.35;1.33;;;9.00;95.50;;;;;;5035300;28;20075;-88
2022/04/07 04:34:56;;;;;;;6.65;1.50;;;9.10;95.50;;;;;;5051196;28;20049;-88
2022/04/07 04:37:26;;;;;;;4.40;1.30;;;9.00;95.40;;;;;;5050938;28;20041;-87
2022/04/07 04:39:54;;;;;;;4.70;1.23;;;9.10;95.40;;;;;;5051171;28;20041;-88
2022/04/07 04:42:24;;;;;;;6.00;1.08;;;9.10;95.40;;;;;;5050681;28;20041;-88
2022/04/07 04:44:53;;;;;;;4.15;1.42;;;9.10;95.40;;;;;;5050988;28;20050;-88
2022/04/07 04:47:23;;;;;;;4.55;1.23;;;9.10;95.40;;;;;;5051190;28;20041;-87
2022/04/07 04:49:51;;;;;;;2.97;1.70;;;9.10;95.40;;;;;;5050688;28;20069;-88
2022/04/07 04:52:20;;;;;;;4.63;1.65;;;9.10;95.30;;;;;;5050532;28;20049;-88
2022/04/07 04:54:47;;;;;;;2.22;1.02;;;9.10;95.30;;;;;;5050331;28;20045;-88
2022/04/07 04:57:14;;;;;;;6.05;1.33;;;9.10;95.20;;;;;;5033883;28;20153;-88
2022/04/07 04:59:41;;;;;;;4.28;1.30;;;9.10;95.20;;;;;;5050347;28;20045;-89
2022/04/07 05:02:09;;;;;;;6.43;1.48;;;9.20;95.10;;;;;;5034284;28;20052;-88
2022/04/07 05:04:37;;;;;;;5.38;1.15;;;9.20;95.10;;;;;;5033791;28;20050;-88
2022/04/07 05:07:04;;;;;;;4.63;1.50;;;9.20;95.10;;;;;;5033572;28;20498;-88
2022/04/07 05:09:34;;;;;;;5.95;1.77;;;9.20;95.00;;;;;;5033673;28;20045;-83
2022/04/07 05:12:02;;;;;;;4.10;1.27;;;9.20;95.00;;;;;;5049838;28;20049;-84
2022/04/07 05:14:29;;;;;;;4.15;1.35;;;9.20;94.90;;;;;;5033084;28;20045;-83
2022/04/07 05:16:56;;;;;;;4.53;1.02;;;9.30;94.90;;;;;;5032655;28;20045;-83
2022/04/07 05:19:23;;;;;;;2.88;1.02;;;9.30;94.90;;;;;;5016626;28;20041;-83
2022/04/07 05:21:50;;;;;;;3.28;0.95;;;9.30;94.90;;;;;;5042251;28;20460;-83
2022/04/07 05:24:18;;;;;;;4.60;1.10;;;9.30;94.90;;;;;;4999529;28;20053;-82
2022/04/07 05:26:46;;;;;;;3.28;0.93;;;9.20;94.80;;;;;;5032725;28;20050;-83
2022/04/07 05:29:13;;;;;;;4.55;1.20;;;9.30;94.80;;;;;;5016598;28;20049;-84
2022/04/07 05:31:40;;;;;;;4.03;1.13;;;9.30;94.80;;;;;;5032946;28;20046;-83
2022/04/07 05:34:08;;;;;;;3.75;0.80;;;9.30;94.70;;;;;;4999926;28;20049;-83
2022/04/07 05:36:35;;;;;;;2.17;0.80;;;9.30;94.80;;;;;;4999553;28;20038;-83
2022/04/07 05:39:03;;;;;;;3.90;0.70;;;9.30;94.70;;;;;;5000060;28;20049;-83
2022/04/07 05:41:30;;;;;;;1.70;0.70;;;9.30;94.70;;;;;;5015985;28;20472;-83
2022/04/07 05:43:57;;;;;;;1.77;0.70;;;9.30;94.70;;;;;;4999997;28;20046;-85
2022/04/07 05:46:25;;;;;;;2.85;0.77;;;9.30;94.70;;;;;;5000214;28;20045;-84
2022/04/07 05:48:52;;;;;;;2.88;0.70;;;9.30;94.70;;;;;;5016088;28;20045;-84
2022/04/07 05:51:19;;;;;;;1.90;0.63;;;9.30;94.80;;;;;;5015529;28;20057;-84
2022/04/07 05:53:46;;;;;;;2.08;0.50;;;9.30;94.80;;;;;;5016269;28;20046;-85
2022/04/07 05:56:17;;;;;;;2.50;0.93;;;9.30;94.80;;;;;;5016908;28;20375;-84
2022/04/07 05:58:45;;;;;;;2.42;0.80;;;9.30;94.80;;;;;;5016137;28;20124;-83
2022/04/07 06:01:13;;;;;;;0.88;0.47;;;9.30;94.80;;;;;;5032539;28;20521;-83
2022/04/07 06:03:50;;;;;;;2.83;0.65;;;9.30;94.80;;;;;;5015841;28;20038;-84
2022/04/07 06:06:25;;;;;;;1.20;0.43;;;9.40;94.90;;;;;;5016063;28;20045;-84
2022/04/07 06:08:52;;;;;;;2.58;0.70;;;9.30;94.90;;;;;;5015631;28;20042;-83
2022/04/07 06:11:19;;;;;;;2.08;0.82;;;9.30;94.90;;;;;;5015067;28;20042;-83
2022/04/07 06:13:46;;;;;;;1.10;0.50;;;9.30;94.90;;;;;;4999004;28;20099;-83
2022/04/07 06:16:15;;;;;;;2.25;0.60;;;9.30;94.90;;;;;;4999722;28;20379;-83
2022/04/07 06:18:42;;;;;;;3.08;0.80;;;9.30;95.00;;;;;;5015739;28;20128;-82
2022/04/07 06:21:09;;;;;;;3.72;0.55;;;9.30;95.00;;;;;;5015332;28;20034;-84
2022/04/07 06:23:39;;;;;;;1.70;0.68;;;9.30;95.00;;;;;;5035060;28;20053;-84
2022/04/07 06:26:07;;;;;;;1.42;0.63;;;9.30;95.10;;;;;;5036304;28;20051;-84
2022/04/07 06:28:39;;;;;;;0.70;0.40;;;9.30;95.10;;;;;;5035123;28;20135;-85
2022/04/07 06:31:06;;;;;;;1.23;0.50;;;9.30;95.20;;;;;;5003993;28;20864;-85
2022/04/07 06:33:39;;;;;;;2.15;0.60;;;9.30;95.20;;;;;;5052319;28;20095;-90
2022/04/07 06:36:29;;;;;;;2.58;0.63;;;9.20;95.20;;;;;;5039021;28;20041;-89
2022/04/07 06:39:25;;;;;;;1.92;0.60;;;9.20;95.20;;;;;;5043427;28;20041;-90
2022/04/07 06:41:52;;;;;;;2.08;0.75;;;9.20;95.30;;;;;;5019296;28;20068;-85
2022/04/07 06:44:20;;;;;;;2.10;0.80;;;9.20;95.30;;;;;;5035476;28;20049;-85
2022/04/07 06:46:50;;;;;;;2.95;0.90;;;9.30;95.40;;;;;;5003299;28;20045;-85
2022/04/07 06:49:19;;;;;;;3.58;1.23;;;9.20;95.40;;;;;;5035750;28;20140;-86
2022/04/07 06:51:47;;;;;;;5.78;1.00;;;9.20;95.40;;;;;;5052730;28;20041;-85
2022/04/07 06:54:15;;;;;;;2.95;0.93;;;9.30;95.50;;;;;;5034865;28;20140;-83
2022/04/07 06:56:43;;;;;;;2.20;0.80;;;9.20;95.50;;;;;;5034515;28;20040;-89
2022/04/07 06:59:32;;;;;;;2.80;1.10;;;9.30;95.50;;;;;;5052104;28;20068;-88
2022/04/07 07:06:18;;;;;;;2.58;1.17;;;9.20;95.50;;;;;;5072940;28;20033;-90
2022/04/07 07:08:48;;;;;;;1.65;0.73;;;9.20;95.60;;;;;;5055925;28;20055;-87
2022/04/07 07:11:15;;;;;;;1.00;0.30;;;8.90;95.00;;;;;;5039391;28;20053;-90
2022/04/07 07:16:51;;;;;;;0.60;0.10;;;7.70;93.90;;;;;;5022468;28;20053;-89
2022/04/07 07:19:28;;;;;;;2.15;0.20;;;7.00;94.40;;;;;;5038404;28;20118;-88
2022/04/07 07:21:59;;;;;;;1.13;0.13;;;6.50;95.30;;;;;;5057653;28;20057;-84
2022/04/07 07:25:41;;;;;;;2.03;0.20;;;6.30;96.00;;;;;;5058839;28;20055;-90
2022/04/07 07:28:10;;;;;;;1.17;0.20;;;6.20;96.30;;;;;;5059541;28;20052;-93
2022/04/07 07:30:37;;;;;;;1.15;0.20;;;6.10;96.40;;;;;;5042561;28;20051;-88
2022/04/07 07:33:28;;;;;;;1.52;0.20;;;6.10;96.40;;;;;;5058829;28;20404;-90
2022/04/07 07:36:04;;;;;;;1.77;0.30;;;6.10;96.30;;;;;;5058717;28;20040;-90
2022/04/07 07:38:44;;;;;;;0.47;0.10;;;6.10;96.20;;;;;;5042004;28;20048;-89
2022/04/07 07:41:25;;;;;;;1.15;0.28;;;6.00;96.30;;;;;;5058683;28;20113;-90
2022/04/07 07:44:24;;;;;;;0.30;0.10;;;6.10;96.40;;;;;;5058598;28;20098;-94
2022/04/07 07:47:20;;;;;;;4.95;0.52;;;6.20;96.40;;;;;;5038721;28;20090;-89
2022/04/07 07:49:54;;;;;;;1.52;0.30;;;6.20;96.20;;;;;;5042552;28;20048;-87
2022/04/07 07:52:22;;;;;;;1.73;0.25;;;6.20;96.30;;;;;;5042015;28;20036;-87
2022/04/07 07:54:52;;;;;;;1.77;0.22;;;6.20;96.30;;;;;;5058094;28;20546;-88
2022/04/07 07:57:20;;;;;;;0.95;0.30;;;6.20;96.30;;;;;;5041751;28;20098;-87
2022/04/07 07:59:47;;;;;;;0.93;0.20;;;6.20;96.30;;;;;;5058505;28;20041;-87
2022/04/07 08:02:18;;;;;;;1.02;0.30;;;6.30;96.30;;;;;;5025507;28;20045;-88
2022/04/07 08:04:46;;;;;;;2.83;0.32;;;6.40;96.30;;;;;;5058014;28;20484;-85
2022/04/07 08:07:13;;;;;;;1.55;0.22;;;6.30;96.20;;;;;;5041657;28;20052;-89
2022/04/07 08:09:51;;;;;;;1.88;0.30;;;6.40;96.30;;;;;;5041905;28;20511;-88
2022/04/07 08:16:55;;;;;;;1.77;0.30;;;6.30;96.20;;;;;;5057460;28;20036;-85
2022/04/07 08:19:22;;;;;;;3.28;0.22;;;6.30;96.20;;;;;;5057731;28;20131;-82
2022/04/07 08:21:49;;;;;;;0.73;0.20;;;6.40;96.20;;;;;;5057805;28;20075;-85
2022/04/07 08:24:29;;;;;;;2.40;0.30;;;6.40;96.20;;;;;;5059010;28;20056;-94
2022/04/07 08:26:59;;;;;;;2.47;0.57;;;6.40;96.20;;;;;;5052715;28;20064;-86
2022/04/07 08:29:27;;;;;;;1.52;0.40;;;6.40;96.20;;;;;;5039696;28;20072;-88
2022/04/07 08:32:05;;;;;;;0.93;0.13;;;6.50;96.20;;;;;;5042352;28;20044;-88
2022/04/07 08:34:36;;;;;;;2.97;0.75;;;6.50;96.20;;;;;;5041802;28;20044;-87
2022/04/07 08:37:21;;;;;;;1.00;0.35;;;6.60;96.20;;;;;;5057993;28;20480;-91
2022/04/07 08:40:34;;;;;;;0.75;0.25;;;6.70;96.20;;;;;;5061212;28;20499;-93
2022/04/07 08:43:01;;;;;;;0.98;0.22;;;6.80;96.20;;;;;;5056944;28;20041;-88
2022/04/07 08:45:29;;;;;;;1.33;0.20;;;7.00;96.20;;;;;;5040530;28;20106;-89
2022/04/07 08:47:57;;;;;;;1.73;0.40;;;7.10;96.20;;;;;;5024390;28;20052;-88
2022/04/07 08:50:33;;;;;;;1.25;0.20;;;7.30;96.00;;;;;;5057555;28;20500;-90
2022/04/07 08:53:01;;;;;;;2.53;0.50;;;7.30;95.90;;;;;;5057617;28;20416;-88
2022/04/07 08:55:28;;;;;;;1.85;0.30;;;7.30;96.30;;;;;;5057111;28;20047;-88
2022/04/07 08:58:00;;;;;;;1.13;0.30;;;7.40;96.10;;;;;;5056838;28;20051;-89
2022/04/07 09:00:30;;;;;;;3.28;0.50;;;7.50;96.10;;;;;;5040858;28;20048;-88
2022/04/07 09:03:00;;;;;;;1.92;0.52;;;7.70;96.20;;;;;;5056690;28;20045;-87
2022/04/07 09:05:34;;;;;;;1.27;0.50;;;7.90;96.30;;;;;;5056787;28;20093;-89
2022/04/07 09:08:02;;;;;;;4.72;0.45;;;8.20;96.30;;;;;;5040579;28;20051;-87
2022/04/07 09:10:29;;;;;;;3.60;0.60;;;8.40;96.00;;;;;;5056709;28;20056;-85
2022/04/07 09:13:11;;;;;;;2.22;0.80;;;8.50;95.80;;;;;;5059083;28;20048;-89
2022/04/07 09:15:38;;;;;;;2.80;0.95;;;8.50;95.80;;;;;;5040213;28;20045;-80
2022/04/07 09:18:07;;;;;;;1.83;0.60;;;8.50;95.80;;;;;;5057355;28;20043;-80
2022/04/07 09:20:42;;;;;;;4.45;0.50;;;8.60;96.00;;;;;;5040008;28;20062;-83
2022/04/07 09:23:12;;;;;;;2.42;0.70;;;8.80;95.90;;;;;;5039148;28;20049;-82
2022/04/07 09:25:49;;;;;;;2.25;0.55;;;9.00;95.80;;;;;;5054882;28;20055;-83
2022/04/07 09:28:29;;;;;;;2.05;0.40;;;9.10;95.70;;;;;;5055999;28;20098;-84
2022/04/07 09:30:59;;;;;;;2.92;0.40;;;9.20;95.60;;;;;;5056320;28;20048;-84
2022/04/07 09:33:28;;;;;;;4.07;1.10;;;9.20;95.50;;;;;;5039613;28;20044;-84
2022/04/07 09:36:00;;;;;;;2.22;0.40;;;9.30;95.40;;;;;;5039615;28;20068;-85
2022/04/07 09:38:30;;;;;;;4.60;0.70;;;9.30;95.40;;;;;;5056076;28;20048;-86
2022/04/07 09:41:11;;;;;;;1.45;0.47;;;9.30;95.20;;;;;;5056110;28;20051;-84
2022/04/07 09:43:46;;;;;;;3.05;0.93;;;9.30;95.10;;;;;;5056010;28;20128;-84
2022/04/07 09:46:22;;;;;;;5.45;0.60;;;9.40;95.10;;;;;;5055475;28;20098;-84
2022/04/07 09:49:16;;;;;;;4.00;0.55;;;9.50;95.00;;;;;;5039097;28;20128;-84
2022/04/07 09:51:48;;;;;;;2.78;0.65;;;9.60;94.80;;;;;;5035856;28;20060;-85
2022/04/07 09:54:17;;;;;;;2.50;0.50;;;9.70;94.80;;;;;;5055755;28;20048;-85
2022/04/07 09:56:47;;;;;;;4.95;0.60;;;9.80;94.60;;;;;;5038449;28;20040;-85
2022/04/07 09:59:19;;;;;;;1.70;0.43;;;9.90;94.30;;;;;;5038536;28;20098;-84
2022/04/07 10:01:49;;;;;;;3.63;0.50;;;9.90;94.20;;;;;;5039142;28;20048;-84
2022/04/07 10:04:19;;;;;;;5.45;0.60;;;9.90;94.20;;;;;;5038640;28;20540;-85
2022/04/07 10:06:52;;;;;;;3.75;0.52;;;9.90;94.00;;;;;;5055400;28;20446;-85
2022/04/07 10:09:20;;;;;;;7.45;0.40;;;10.00;93.80;;;;;;5054877;28;20423;-81
2022/04/07 10:11:48;;;;;;;4.35;0.40;;;10.00;93.70;;;;;;5022120;28;20068;-81
2022/04/07 10:14:21;;;;;;;3.38;0.57;;;10.10;93.50;;;;;;5038773;28;20052;-82
2022/04/07 10:16:51;;;;;;;6.00;0.50;;;10.20;93.00;;;;;;5054795;28;20407;-82
2022/04/07 10:19:38;;;;;;;3.95;0.52;;;10.40;92.90;;;;;;5038812;28;20394;-83
2022/04/07 10:22:22;;;;;;;2.83;0.40;;;10.60;92.40;;;;;;5055195;28;20504;-88
2022/04/07 10:25:02;;;;;;;3.90;0.60;;;10.60;91.80;;;;;;5015974;28;20061;-85
2022/04/07 10:27:39;;;;;;;2.55;0.35;;;10.60;91.90;;;;;;5015972;28;20042;-87
2022/04/07 10:30:11;;;;;;;1.83;0.35;;;10.60;91.80;;;;;;5031846;28;20049;-91
2022/04/07 10:32:43;;;;;;;5.57;0.50;;;10.60;91.80;;;;;;5016494;28;20049;-87
2022/04/07 10:35:33;;;;;;;5.80;0.90;;;10.50;91.60;;;;;;5016000;28;20073;-84
2022/04/07 10:38:02;;;;;;;5.50;1.02;;;10.50;91.30;;;;;;5035445;28;20132;-80
2022/04/07 10:40:33;;;;;;;4.85;0.73;;;10.50;90.60;;;;;;5019518;28;20084;-87
2022/04/07 10:43:22;;;;;;;3.33;0.52;;;10.50;90.10;;;;;;5035777;28;20045;-82
2022/04/07 10:46:06;;;;;;;3.17;0.38;;;10.50;90.30;;;;;;5035651;28;20131;-85
2022/04/07 10:48:36;;;;;;;5.95;0.63;;;10.60;90.10;;;;;;5035328;28;20100;-85
2022/04/07 10:51:04;;;;;;;3.28;0.45;;;10.90;88.60;;;;;;5035854;28;20060;-82
2022/04/07 10:53:36;;;;;;;6.63;1.17;;;11.00;85.90;;;;;;5034939;28;20072;-82
2022/04/07 10:56:31;;;;;;;5.25;0.80;;;10.90;86.10;;;;;;5045634;28;20619;-84
2022/04/07 10:59:27;;;;;;;8.63;0.90;;;10.90;85.80;;;;;;5036135;28;20044;-85
2022/04/07 11:02:04;;;;;;;7.60;0.80;;;11.00;84.70;;;;;;5046958;28;20053;-86
2022/04/07 11:04:39;;;;;;;7.63;0.80;;;11.00;85.00;;;;;;5040109;28;20042;-89
2022/04/07 11:07:07;;;;;;;6.20;0.93;;;10.90;84.60;;;;;;5038234;28;20049;-85
2022/04/07 11:09:44;;;;;;;9.75;1.00;;;10.80;84.10;;;;;;5050174;28;20136;-82
2022/04/07 11:12:17;;;;;;;7.60;0.90;;;10.70;82.30;;;;;;5037116;28;20091;-84
2022/04/07 11:15:13;;;;;;;4.80;0.80;;;10.60;81.30;;;;;;5034979;28;20053;-89
2022/04/07 11:18:05;;;;;;;7.72;1.10;;;10.50;81.60;;;;;;5029629;28;20044;-84
2022/04/07 11:20:32;;;;;;;3.17;0.50;;;10.50;81.30;;;;;;5043216;28;20091;-84
2022/04/07 11:23:06;;;;;;;9.32;0.90;;;10.50;81.40;;;;;;5033404;28;20041;-88
2022/04/07 11:25:43;;;;;;;5.72;0.95;;;10.50;81.50;;;;;;5069519;28;20052;-89
2022/04/07 11:28:31;;;;;;;6.95;0.93;;;10.50;81.40;;;;;;5073014;28;20044;-86
2022/04/07 11:31:00;;;;;;;5.03;1.13;;;10.50;81.40;;;;;;5063437;28;20051;-84
2022/04/07 11:33:41;;;;;;;8.45;1.00;;;10.40;80.20;;;;;;5055392;28;20044;-88
2022/04/07 11:36:33;;;;;;;8.23;1.58;;;10.40;80.90;;;;;;5073975;28;20045;-85
2022/04/07 11:39:02;;;;;;;7.20;1.00;;;10.40;81.10;;;;;;5057281;28;20044;-81
2022/04/07 11:41:32;;;;;;;6.10;0.85;;;10.40;81.00;;;;;;5077569;28;20939;-84
2022/04/07 11:44:07;;;;;;;7.55;0.82;;;10.40;81.00;;;;;;5063979;28;20037;-82
2022/04/07 11:46:34;;;;;;;6.68;1.02;;;10.50;81.60;;;;;;5075910;28;20050;-82
2022/04/07 11:49:03;;;;;;;9.60;1.27;;;10.50;80.80;;;;;;5019076;28;20493;-80
2022/04/07 11:51:35;;;;;;;8.10;1.25;;;10.60;80.90;;;;;;5062696;28;20044;-88
2022/04/07 11:54:03;;;;;;;8.35;0.93;;;10.60;80.10;;;;;;5056808;28;20052;-88
2022/04/07 11:56:37;;;;;;;4.97;0.77;;;10.60;79.70;;;;;;5041704;28;20044;-82
2022/04/07 11:59:11;;;;;;;5.30;1.10;;;10.70;78.30;;;;;;5042619;28;20068;-81
2022/04/07 12:01:40;;;;;;;5.70;0.82;;;10.70;78.30;;;;;;5042136;28;20147;-79
2022/04/07 12:04:09;;;;;;;6.05;0.90;;;10.70;78.20;;;;;;5053764;28;20037;-80
2022/04/07 12:06:44;;;;;;;4.03;1.40;;;10.60;78.50;;;;;;5067324;28;20052;-82
2022/04/07 12:09:13;;;;;;;5.63;0.90;;;10.60;78.10;;;;;;5052392;28;20051;-84
2022/04/07 12:11:41;;;;;;;11.02;0.93;;;10.70;78.40;;;;;;5052751;28;20050;-81
2022/04/07 12:14:11;;;;;;;8.77;1.17;;;10.80;78.10;;;;;;5062862;28;20047;-83
2022/04/07 12:16:45;;;;;;;7.90;0.93;;;10.90;77.60;;;;;;5043176;28;20476;-85
2022/04/07 12:19:16;;;;;;;9.00;1.83;;;11.00;77.70;;;;;;5044969;28;20055;-85
2022/04/07 12:21:51;;;;;;;6.53;1.02;;;11.10;76.90;;;;;;5059375;28;20044;-81
2022/04/07 12:24:18;;;;;;;5.10;0.98;;;11.10;77.00;;;;;;5058140;28;20052;-80
2022/04/07 12:26:51;;;;;;;10.38;1.10;;;11.20;77.10;;;;;;5076792;28;20050;-79
2022/04/07 12:29:23;;;;;;;8.48;1.58;;;11.20;76.50;;;;;;5055575;28;20040;-82
2022/04/07 12:32:06;;;;;;;10.18;1.40;;;11.00;75.90;;;;;;5052929;28;20076;-83
2022/04/07 12:34:50;;;;;;;6.03;0.68;;;11.00;76.00;;;;;;5070985;28;20040;-85
2022/04/07 12:37:27;;;;;;;5.82;1.00;;;10.80;76.00;;;;;;5070143;28;20074;-84
2022/04/07 12:39:55;;;;;;;9.38;1.25;;;10.80;75.20;;;;;;5061446;28;20450;-85
2022/04/07 12:42:22;;;;;;;7.60;0.82;;;10.70;75.50;;;;;;5063378;28;20044;-85
2022/04/07 12:44:49;;;;;;;5.47;0.80;;;10.80;74.60;;;;;;5053527;28;20546;-86
2022/04/07 12:47:26;;;;;;;4.75;0.68;;;10.90;75.00;;;;;;5070830;28;20044;-84
2022/04/07 12:49:55;;;;;;;7.13;1.13;;;11.00;75.30;;;;;;5058916;28;20055;-83
2022/04/07 12:52:37;;;;;;;6.53;0.60;;;11.00;74.80;;;;;;5074286;28;20058;-85
2022/04/07 12:55:15;;;;;;;6.88;1.20;;;11.10;74.90;;;;;;5075427;28;20043;-84
2022/04/07 12:57:45;;;;;;;6.65;1.10;;;11.20;75.10;;;;;;5068172;28;20067;-89
2022/04/07 13:00:33;;;;;;;6.03;0.85;;;11.30;75.10;;;;;;5058722;28;20421;-84
2022/04/07 13:03:05;;;;;;;4.25;0.50;;;11.50;75.20;;;;;;5051712;28;20052;-85
2022/04/07 13:05:35;;;;;;;4.38;0.55;;;11.60;75.20;;;;;;5058135;28;20143;-85
2022/04/07 13:08:04;;;;;;;7.50;1.05;;;11.60;74.20;;;;;;5084325;28;20064;-84
2022/04/07 13:10:33;;;;;;;4.65;0.80;;;11.70;73.50;;;;;;5070779;28;20033;-84
2022/04/07 13:13:03;;;;;;;6.10;0.98;;;11.70;72.20;;;;;;5051797;28;20044;-83
2022/04/07 13:15:30;;;;;;;7.15;1.00;;;11.70;72.30;;;;;;5060164;28;20028;-89
2022/04/07 13:17:57;;;;;;;6.18;0.68;;;11.70;72.20;;;;;;5072192;28;20048;-85
2022/04/07 13:20:26;;;;;;;6.43;0.70;;;11.70;71.60;;;;;;5022510;28;20049;-84
2022/04/07 13:22:53;;;;;;;5.60;0.85;;;11.70;71.40;;;;;;5026438;28;20473;-87
2022/04/07 13:25:23;;;;;;;3.88;0.60;;;11.70;71.00;;;;;;5051190;28;20048;-85
2022/04/07 13:27:51;;;;;;;6.22;0.63;;;11.70;70.80;;;;;;5075398;28;20425;-83
2022/04/07 13:30:24;;;;;;;5.40;0.82;;;11.70;70.80;;;;;;5046556;28;20400;-82